Time;durP1;ratioP1;P1;durP2;ratioP2;P2;SDS_P1;SDS_P2;PMS_P1;PMS_P2;Temp;Humidity;BMP_temperature;BMP_pressure;BME280_temperature;BME280_humidity;BME280_pressure;Samples;Min_cycle;Max_cycle;Signal;HPM_P1;HPM_P2
2023/06/02 00:00:39;;;;;;;11.02;6.32;;;;;;;14.35;63.93;98143.44;4981428;28;20133;-76
2023/06/02 00:03:05;;;;;;;9.93;5.85;;;;;;;14.35;63.76;98138.00;5042564;28;20424;-75
2023/06/02 00:05:31;;;;;;;9.13;6.78;;;;;;;14.34;64.04;98141.78;5013374;28;20484;-75
2023/06/02 00:07:57;;;;;;;7.47;5.85;;;;;;;13.88;66.31;98140.06;5014735;28;20064;-75
2023/06/02 00:10:22;;;;;;;9.38;6.40;;;;;;;13.67;66.69;98137.28;4994195;28;20532;-75
2023/06/02 00:12:48;;;;;;;8.40;6.53;;;;;;;13.83;66.05;98147.09;5023101;28;20025;-75
2023/06/02 00:15:13;;;;;;;9.75;6.90;;;;;;;13.66;67.07;98142.94;5038515;28;20157;-75
2023/06/02 00:17:38;;;;;;;12.27;6.93;;;;;;;13.50;67.25;98143.97;5033316;28;20067;-75
2023/06/02 00:20:05;;;;;;;9.57;6.88;;;;;;;13.77;66.64;98148.13;5019593;28;20045;-75
2023/06/02 00:22:32;;;;;;;10.73;7.13;;;;;;;13.84;66.81;98154.09;5001496;28;20030;-74
2023/06/02 00:24:58;;;;;;;9.90;6.72;;;;;;;13.83;66.83;98144.38;5014455;28;20025;-73
2023/06/02 00:27:23;;;;;;;12.57;7.22;;;;;;;13.84;67.21;98151.41;4998079;28;20498;-75
2023/06/02 00:29:48;;;;;;;10.60;7.00;;;;;;;14.08;66.48;98145.50;5004473;28;20033;-74
2023/06/02 00:32:14;;;;;;;9.73;7.53;;;;;;;13.90;67.44;98151.41;4993927;28;20030;-75
2023/06/02 00:34:39;;;;;;;11.40;7.20;;;;;;;13.74;68.13;98145.97;4998084;28;20392;-75
2023/06/02 00:37:05;;;;;;;9.85;8.20;;;;;;;13.72;67.65;98140.00;5017729;28;20075;-75
2023/06/02 00:39:30;;;;;;;10.27;7.70;;;;;;;13.82;68.01;98140.03;5007067;28;20091;-75
2023/06/02 00:41:56;;;;;;;14.63;8.10;;;;;;;13.61;68.22;98141.03;5000907;28;20018;-75
2023/06/02 00:44:21;;;;;;;12.52;8.73;;;;;;;13.65;68.97;98139.44;5023122;28;20423;-75
2023/06/02 00:46:47;;;;;;;10.40;7.95;;;;;;;13.76;68.20;98140.28;5025610;28;20032;-75
2023/06/02 00:49:12;;;;;;;11.65;8.50;;;;;;;13.44;68.96;98132.31;5023860;28;20030;-75
2023/06/02 00:51:39;;;;;;;11.88;8.60;;;;;;;13.68;68.50;98148.91;5011159;28;20029;-75
2023/06/02 00:54:05;;;;;;;9.65;8.20;;;;;;;13.61;69.23;98142.94;5023330;28;20033;-75
2023/06/02 00:56:31;;;;;;;12.68;9.40;;;;;;;13.39;69.17;98148.53;5005230;28;20036;-75
2023/06/02 00:58:58;;;;;;;10.65;9.57;;;;;;;12.99;70.79;98145.56;5007538;28;20030;-75
2023/06/02 01:01:23;;;;;;;12.80;10.27;;;;;;;12.96;71.58;98137.97;5013701;28;20032;-74
2023/06/02 01:03:49;;;;;;;11.75;10.55;;;;;;;13.11;70.68;98138.09;5006448;28;20128;-75
2023/06/02 01:06:15;;;;;;;10.55;9.45;;;;;;;13.13;70.54;98138.66;5004065;28;20021;-75
2023/06/02 01:08:43;;;;;;;13.52;10.40;;;;;;;13.22;70.39;98145.19;5010797;28;20068;-75
2023/06/02 01:11:08;;;;;;;11.40;10.00;;;;;;;13.39;69.15;98147.72;5013675;28;20021;-75
2023/06/02 01:13:35;;;;;;;13.45;9.35;;;;;;;13.51;68.78;98154.53;5024426;28;20040;-75
2023/06/02 01:16:01;;;;;;;10.48;9.48;;;;;;;13.42;68.71;98152.63;5000670;28;20033;-74
2023/06/02 01:18:29;;;;;;;14.27;10.18;;;;;;;12.97;71.00;98155.84;5007106;28;20551;-75
2023/06/02 01:20:57;;;;;;;13.23;10.45;;;;;;;13.13;70.32;98152.19;5030042;28;20096;-75
2023/06/02 01:23:30;;;;;;;11.43;10.38;;;;;;;13.10;70.33;98153.50;5004865;28;20041;-76
2023/06/02 01:25:57;;;;;;;11.40;10.30;;;;;;;13.14;70.12;98160.00;5006703;28;20115;-75
2023/06/02 01:28:23;;;;;;;14.23;10.65;;;;;;;12.89;70.18;98156.31;5025003;28;20036;-75
2023/06/02 01:30:50;;;;;;;13.20;10.80;;;;;;;12.93;70.84;98165.50;5008278;28;20085;-75
2023/06/02 01:33:32;;;;;;;12.85;11.65;;;;;;;12.94;70.74;98153.63;4996578;28;20034;-75
2023/06/02 01:35:59;;;;;;;13.07;11.90;;;;;;;12.78;71.26;98154.63;4985664;28;20029;-75
2023/06/02 01:38:26;;;;;;;12.70;11.40;;;;;;;12.86;70.63;98162.25;5011419;28;20022;-74
2023/06/02 01:40:59;;;;;;;12.38;10.85;;;;;;;12.99;70.02;98159.09;5005047;28;20510;-75
2023/06/02 01:43:24;;;;;;;12.93;11.00;;;;;;;12.85;70.55;98160.59;5003295;28;20045;-75
2023/06/02 01:45:50;;;;;;;12.60;11.07;;;;;;;12.91;70.17;98162.25;5005540;28;20029;-75
2023/06/02 01:48:17;;;;;;;12.73;11.20;;;;;;;12.32;71.97;98172.34;5015125;28;20120;-74
2023/06/02 01:50:43;;;;;;;16.92;13.05;;;;;;;12.37;72.14;98170.47;5018419;28;20083;-74
2023/06/02 01:53:09;;;;;;;17.25;14.35;;;;;;;12.35;72.38;98161.00;5016649;28;20029;-74
2023/06/02 01:55:34;;;;;;;15.05;13.57;;;;;;;12.27;72.98;98175.00;5031893;28;20071;-75
2023/06/02 01:58:00;;;;;;;16.48;14.88;;;;;;;12.37;72.59;98170.47;5027581;28;20111;-74
2023/06/02 02:00:26;;;;;;;16.80;14.30;;;;;;;12.46;72.50;98168.16;5027550;28;20021;-74
2023/06/02 02:02:52;;;;;;;16.70;15.20;;;;;;;12.45;72.38;98171.91;5016008;28;20037;-75
2023/06/02 02:05:17;;;;;;;17.13;15.57;;;;;;;12.21;72.84;98176.81;5016040;28;20383;-75
2023/06/02 02:07:43;;;;;;;16.95;15.23;;;;;;;12.32;72.22;98173.13;5024859;28;20048;-75
2023/06/02 02:10:10;;;;;;;17.73;16.20;;;;;;;12.09;73.49;98178.84;5008005;28;20108;-73
2023/06/02 02:12:35;;;;;;;19.83;18.15;;;;;;;11.94;73.86;98184.09;5025613;28;20138;-74
2023/06/02 02:15:01;;;;;;;19.27;17.73;;;;;;;12.15;73.11;98175.16;5018409;28;20486;-73
2023/06/02 02:17:28;;;;;;;18.42;16.80;;;;;;;12.40;71.85;98175.38;5018911;28;20041;-73
2023/06/02 02:19:55;;;;;;;19.58;17.75;;;;;;;12.12;73.22;98183.75;5023787;28;20087;-73
2023/06/02 02:22:24;;;;;;;19.15;17.63;;;;;;;12.32;72.29;98172.34;5012274;28;20468;-73
2023/06/02 02:24:49;;;;;;;16.98;15.52;;;;;;;12.56;71.64;98172.78;4995175;28;20395;-73
2023/06/02 02:27:15;;;;;;;16.50;14.93;;;;;;;12.54;70.85;98164.13;4979649;28;20034;-74
2023/06/02 02:29:41;;;;;;;18.38;16.83;;;;;;;11.74;74.09;98167.66;4998287;28;20108;-74
2023/06/02 02:32:08;;;;;;;21.42;19.40;;;;;;;11.54;74.72;98168.22;4999329;28;20040;-75
2023/06/02 02:34:34;;;;;;;21.95;20.25;;;;;;;11.88;73.81;98171.59;4998450;28;20033;-75
2023/06/02 02:37:03;;;;;;;25.42;23.42;;;;;;;11.43;76.04;98179.13;5043327;28;20033;-75
2023/06/02 02:39:30;;;;;;;27.63;25.27;;;;;;;11.62;75.21;98177.75;5024769;28;20035;-74
2023/06/02 02:41:56;;;;;;;27.20;25.13;;;;;;;11.60;74.96;98183.38;5035758;28;20025;-75
2023/06/02 02:44:23;;;;;;;25.48;23.45;;;;;;;11.61;75.07;98184.19;5007788;28;20451;-74
2023/06/02 02:46:48;;;;;;;27.10;25.20;;;;;;;11.56;75.23;98189.53;5012031;28;20065;-74
2023/06/02 02:49:14;;;;;;;29.13;26.92;;;;;;;11.48;75.36;98181.91;5005466;28;20026;-74
2023/06/02 02:51:39;;;;;;;28.77;26.70;;;;;;;11.49;75.25;98184.31;5015739;28;20045;-74
2023/06/02 02:54:05;;;;;;;27.58;25.65;;;;;;;11.53;75.46;98187.31;5003333;28;20124;-74
2023/06/02 02:56:30;;;;;;;28.73;26.73;;;;;;;11.43;75.72;98187.22;4986831;28;20033;-75
2023/06/02 02:58:59;;;;;;;28.80;26.58;;;;;;;11.39;75.97;98183.41;5004651;28;20029;-74
2023/06/02 03:01:26;;;;;;;30.55;27.60;;;;;;;11.32;76.09;98188.16;5000746;28;20491;-75
2023/06/02 03:03:53;;;;;;;27.88;25.92;;;;;;;11.89;73.76;98189.44;4986740;28;20025;-75
2023/06/02 03:06:21;;;;;;;28.92;26.67;;;;;;;11.54;74.73;98187.09;5025258;28;20495;-74
2023/06/02 03:08:47;;;;;;;26.00;24.10;;;;;;;11.69;74.17;98183.81;4998077;28;20407;-72
2023/06/02 03:11:13;;;;;;;29.92;27.77;;;;;;;11.51;74.54;98192.97;5013511;28;20041;-72
2023/06/02 03:13:39;;;;;;;27.58;25.58;;;;;;;11.73;73.57;98183.06;5012964;28;20112;-72
2023/06/02 03:16:05;;;;;;;31.63;29.52;;;;;;;11.33;75.11;98192.47;5031016;28;20041;-75
2023/06/02 03:18:32;;;;;;;30.10;28.08;;;;;;;11.40;74.42;98190.41;5005655;28;20018;-73
2023/06/02 03:20:58;;;;;;;32.70;30.40;;;;;;;11.13;75.52;98184.09;4991240;28;20029;-74
2023/06/02 03:23:28;;;;;;;31.20;29.02;;;;;;;11.44;75.09;98192.34;5004975;28;20029;-73
2023/06/02 03:25:55;;;;;;;33.53;31.02;;;;;;;10.92;76.90;98193.78;4995753;28;20043;-73
2023/06/02 03:28:20;;;;;;;33.45;31.15;;;;;;;11.37;75.37;98185.50;4993901;28;20101;-73
2023/06/02 03:30:46;;;;;;;30.13;28.02;;;;;;;11.69;74.10;98190.00;5013168;28;20173;-73
2023/06/02 03:33:12;;;;;;;28.92;26.83;;;;;;;11.25;75.66;98182.13;5005019;28;20531;-75
2023/06/02 03:35:38;;;;;;;30.33;28.27;;;;;;;11.57;74.24;98191.19;5002584;28;20384;-75
2023/06/02 03:38:05;;;;;;;29.48;27.25;;;;;;;11.26;75.25;98189.94;5018482;28;20079;-75
2023/06/02 03:40:31;;;;;;;28.42;26.42;;;;;;;11.45;74.62;98185.91;4993373;28;20034;-75
2023/06/02 03:42:56;;;;;;;36.67;34.22;;;;;;;10.61;77.86;98187.09;4998363;28;20029;-74
2023/06/02 03:45:22;;;;;;;36.75;34.55;;;;;;;11.00;76.68;98178.00;5006666;28;20042;-74
2023/06/02 03:47:47;;;;;;;33.67;31.42;;;;;;;11.15;75.58;98177.41;5001694;28;20022;-74
2023/06/02 03:50:15;;;;;;;32.75;30.27;;;;;;;11.11;75.67;98182.47;4984531;28;1028544;-74
2023/06/02 03:52:40;;;;;;;34.22;31.75;;;;;;;11.16;75.24;98183.59;5024660;28;20033;-74
2023/06/02 03:55:07;;;;;;;33.38;31.02;;;;;;;11.02;76.13;98178.56;4995505;28;20377;-73
2023/06/02 03:57:32;;;;;;;34.92;32.35;;;;;;;11.20;75.47;98190.13;5003747;28;20024;-74
2023/06/02 03:59:58;;;;;;;31.58;28.88;;;;;;;11.06;76.00;98187.78;4991443;28;20037;-75
2023/06/02 04:02:26;;;;;;;34.13;31.73;;;;;;;11.29;75.25;98200.25;4990420;28;20155;-75
2023/06/02 04:04:52;;;;;;;28.55;26.38;;;;;;;11.72;73.29;98191.38;5001918;28;20037;-73
2023/06/02 04:07:18;;;;;;;31.20;28.63;;;;;;;11.52;74.66;98191.09;5000965;28;20471;-74
2023/06/02 04:09:44;;;;;;;32.15;29.65;;;;;;;11.24;75.36;98196.66;5001026;28;20115;-74
2023/06/02 04:12:09;;;;;;;30.85;28.27;;;;;;;11.42;74.44;98205.28;5018419;28;20021;-75
2023/06/02 04:14:36;;;;;;;31.15;28.85;;;;;;;11.40;74.79;98201.19;5015634;28;20099;-74
2023/06/02 04:17:03;;;;;;;30.20;27.92;;;;;;;11.54;74.43;98199.75;5010064;28;20017;-74
2023/06/02 04:19:30;;;;;;;29.55;27.13;;;;;;;11.48;74.44;98203.47;5005843;28;20029;-75
2023/06/02 04:21:56;;;;;;;33.20;30.50;;;;;;;11.36;75.28;98208.16;5022227;28;20022;-75
2023/06/02 04:24:21;;;;;;;30.88;28.45;;;;;;;11.59;74.05;98218.72;4995334;28;20560;-74
2023/06/02 04:26:46;;;;;;;31.85;29.38;;;;;;;11.42;74.49;98215.22;5012729;28;20475;-75
2023/06/02 04:29:13;;;;;;;31.13;28.77;;;;;;;11.65;73.97;98217.69;4999972;28;20036;-76
2023/06/02 04:31:42;;;;;;;30.95;28.73;;;;;;;11.56;74.27;98214.63;5001351;28;20025;-74
2023/06/02 04:34:10;;;;;;;29.65;27.25;;;;;;;11.53;74.14;98217.00;5007045;28;20033;-73
2023/06/02 04:36:36;;;;;;;28.33;25.95;;;;;;;11.76;73.50;98222.22;5006338;28;20044;-75
2023/06/02 04:39:03;;;;;;;27.33;24.92;;;;;;;11.85;73.05;98222.56;5007376;28;20055;-74
2023/06/02 04:41:31;;;;;;;24.52;22.60;;;;;;;11.81;73.37;98219.53;5018463;28;20116;-74
2023/06/02 04:43:58;;;;;;;26.83;24.73;;;;;;;11.71;73.76;98216.75;5036546;28;20493;-74
2023/06/02 04:46:26;;;;;;;24.70;22.33;;;;;;;12.39;71.66;98216.94;5023326;28;20033;-73
2023/06/02 04:48:54;;;;;;;25.30;23.15;;;;;;;12.17;72.14;98213.50;5001729;28;20121;-74
2023/06/02 04:51:27;;;;;;;22.48;20.40;;;;;;;12.42;71.05;98216.44;5000760;28;20034;-75
2023/06/02 04:53:53;;;;;;;22.70;20.60;;;;;;;12.04;72.43;98219.28;5003447;28;20129;-73
2023/06/02 04:56:18;;;;;;;21.10;19.02;;;;;;;12.31;70.91;98214.72;5029133;28;20111;-75
2023/06/02 04:58:44;;;;;;;21.95;19.92;;;;;;;12.30;71.38;98215.78;5019585;28;20029;-75
2023/06/02 05:01:09;;;;;;;21.52;19.35;;;;;;;12.46;70.71;98211.38;5021439;28;20104;-73
2023/06/02 05:03:35;;;;;;;19.90;17.88;;;;;;;12.41;71.58;98214.84;5004142;28;20030;-73
2023/06/02 05:06:02;;;;;;;20.95;19.02;;;;;;;12.54;70.17;98220.88;5005813;28;20026;-73
2023/06/02 05:08:28;;;;;;;18.13;16.30;;;;;;;12.55;70.19;98212.53;5025136;28;20071;-73
2023/06/02 05:10:53;;;;;;;18.60;16.63;;;;;;;12.86;69.51;98216.31;5014436;28;20054;-74
2023/06/02 05:13:19;;;;;;;18.20;16.38;;;;;;;12.60;70.55;98217.16;5002580;28;20038;-74
2023/06/02 05:15:46;;;;;;;18.02;16.20;;;;;;;12.62;70.19;98209.59;5004035;28;20025;-76
2023/06/02 05:18:14;;;;;;;17.83;16.13;;;;;;;12.72;69.91;98204.31;5006949;28;20034;-74
2023/06/02 05:20:41;;;;;;;18.70;14.98;;;;;;;12.76;69.35;98200.00;5003062;28;20021;-75
2023/06/02 05:23:07;;;;;;;16.85;14.65;;;;;;;12.84;69.23;98202.22;5035592;28;20040;-75
2023/06/02 05:25:33;;;;;;;14.90;13.00;;;;;;;13.02;68.41;98199.13;5017143;28;20030;-75
2023/06/02 05:27:59;;;;;;;14.38;12.60;;;;;;;13.12;68.05;98216.25;5022973;28;20040;-76
2023/06/02 05:30:25;;;;;;;16.15;12.10;;;;;;;13.32;67.66;98207.47;5003544;28;20021;-75
2023/06/02 05:32:51;;;;;;;18.02;12.27;;;;;;;13.43;66.82;98214.56;5021587;28;20402;-74
2023/06/02 05:35:17;;;;;;;14.95;11.77;;;;;;;13.13;67.61;98217.91;5020745;28;20029;-76
2023/06/02 05:37:43;;;;;;;13.90;11.85;;;;;;;12.80;68.13;98218.16;5007491;28;20033;-76
2023/06/02 05:40:10;;;;;;;14.93;11.25;;;;;;;13.44;67.46;98223.50;5004805;28;20103;-74
2023/06/02 05:42:35;;;;;;;15.75;11.25;;;;;;;13.02;67.39;98220.75;5006706;28;20031;-75
2023/06/02 05:45:05;;;;;;;14.18;10.90;;;;;;;13.18;66.83;98219.81;5018952;28;20124;-73
2023/06/02 05:47:32;;;;;;;13.40;11.77;;;;;;;13.03;67.94;98222.38;5027433;28;20041;-74
2023/06/02 05:49:58;;;;;;;15.00;10.93;;;;;;;13.34;66.57;98218.84;5009198;28;20025;-76
2023/06/02 05:52:24;;;;;;;15.57;11.60;;;;;;;13.34;66.81;98218.84;5016059;28;20495;-74
2023/06/02 05:54:50;;;;;;;14.02;10.77;;;;;;;13.30;66.61;98220.44;5003174;28;20037;-76
2023/06/02 05:57:17;;;;;;;17.25;11.02;;;;;;;13.33;66.41;98225.31;5003563;28;20566;-75
2023/06/02 05:59:43;;;;;;;13.80;10.20;;;;;;;13.26;66.72;98226.59;5002409;28;20268;-73
2023/06/02 06:02:09;;;;;;;13.48;10.23;;;;;;;13.44;67.12;98235.09;5016012;28;20464;-74
2023/06/02 06:04:34;;;;;;;16.50;10.70;;;;;;;13.57;65.64;98239.25;5017298;28;20044;-73
2023/06/02 06:07:02;;;;;;;14.25;9.82;;;;;;;13.44;66.47;98234.31;5008666;28;20415;-75
2023/06/02 06:09:28;;;;;;;16.33;9.55;;;;;;;13.60;65.54;98239.56;5012390;28;20028;-75
2023/06/02 06:11:53;;;;;;;14.00;9.73;;;;;;;13.64;65.28;98235.25;5018942;28;20028;-75
2023/06/02 06:14:19;;;;;;;15.75;10.60;;;;;;;13.66;65.61;98227.66;5002567;28;20475;-74
2023/06/02 06:16:45;;;;;;;14.00;9.98;;;;;;;14.07;63.91;98238.69;4990163;28;20045;-75
2023/06/02 06:19:11;;;;;;;13.13;10.02;;;;;;;13.93;65.33;98242.94;4995458;28;20025;-73
2023/06/02 06:21:37;;;;;;;12.68;9.52;;;;;;;13.74;65.93;98251.53;5023466;28;20109;-73
2023/06/02 06:24:04;;;;;;;12.68;9.32;;;;;;;14.18;64.38;98256.59;4999170;28;20396;-73
2023/06/02 06:26:30;;;;;;;15.07;9.27;;;;;;;14.08;64.62;98249.22;4980836;28;20044;-75
2023/06/02 06:28:56;;;;;;;14.45;9.15;;;;;;;14.07;64.15;98253.00;5019354;28;20409;-73
2023/06/02 06:31:21;;;;;;;14.65;8.90;;;;;;;14.25;63.44;98257.16;5043121;28;20487;-75
2023/06/02 06:33:47;;;;;;;16.63;9.95;;;;;;;14.17;63.50;98261.19;5001615;28;20784;-75
2023/06/02 06:36:13;;;;;;;16.25;9.43;;;;;;;14.18;64.16;98264.72;5021520;28;20040;-75
2023/06/02 06:38:40;;;;;;;12.73;8.85;;;;;;;14.27;63.40;98271.25;5035712;28;20445;-73
2023/06/02 06:41:06;;;;;;;15.05;8.98;;;;;;;14.22;63.46;98271.22;5015296;28;20033;-75
2023/06/02 06:43:32;;;;;;;11.70;8.75;;;;;;;14.75;62.97;98262.69;5004231;28;20078;-74
2023/06/02 06:46:04;;;;;;;13.52;8.55;;;;;;;14.41;63.40;98261.56;5007635;28;20060;-75
2023/06/02 06:48:29;;;;;;;11.30;8.68;;;;;;;14.28;63.32;98267.47;5018992;28;20479;-75
2023/06/02 06:50:55;;;;;;;16.08;9.32;;;;;;;14.27;63.37;98265.81;5034527;28;20124;-75
2023/06/02 06:53:20;;;;;;;17.02;9.43;;;;;;;14.39;63.64;98263.72;5030041;28;20037;-73
2023/06/02 06:55:46;;;;;;;14.65;8.82;;;;;;;14.51;62.39;98272.44;5035881;28;20074;-73
2023/06/02 06:58:12;;;;;;;13.63;8.88;;;;;;;14.57;62.07;98279.47;5035133;28;20380;-74
2023/06/02 07:00:38;;;;;;;13.25;8.73;;;;;;;14.75;61.88;98278.97;5015028;28;20032;-75
2023/06/02 07:03:03;;;;;;;12.77;8.55;;;;;;;14.68;61.48;98272.19;5011299;28;20462;-75
2023/06/02 07:05:29;;;;;;;15.38;8.82;;;;;;;13.79;64.24;98270.50;5022463;28;20403;-75
2023/06/02 07:07:54;;;;;;;13.38;9.25;;;;;;;14.07;64.16;98276.59;5011644;28;20109;-75
2023/06/02 07:10:20;;;;;;;14.25;9.35;;;;;;;14.38;62.77;98278.34;5018347;28;20025;-76
2023/06/02 07:12:45;;;;;;;11.70;8.75;;;;;;;14.75;61.70;98278.16;5028680;28;20048;-75
2023/06/02 07:15:11;;;;;;;15.10;8.85;;;;;;;14.01;64.11;98278.44;5014598;28;20025;-75
2023/06/02 07:17:36;;;;;;;15.50;8.32;;;;;;;14.68;62.23;98275.69;5029669;28;20034;-75
2023/06/02 07:20:02;;;;;;;10.77;7.90;;;;;;;14.74;62.94;98288.19;5021693;28;20022;-76
2023/06/02 07:22:28;;;;;;;14.50;8.18;;;;;;;14.96;60.77;98291.47;5029293;28;20033;-75
2023/06/02 07:24:53;;;;;;;13.10;8.30;;;;;;;14.38;62.56;98297.31;5026515;28;20029;-75
2023/06/02 07:27:18;;;;;;;11.88;8.52;;;;;;;14.92;61.74;98290.38;5027028;28;20033;-75
2023/06/02 07:29:44;;;;;;;10.23;7.93;;;;;;;14.98;61.85;98289.28;5042404;28;20052;-74
2023/06/02 07:32:09;;;;;;;10.15;6.97;;;;;;;15.24;59.80;98285.50;5011134;28;20398;-76
2023/06/02 07:34:37;;;;;;;16.10;8.40;;;;;;;15.18;59.72;98294.75;5033073;28;20041;-76
2023/06/02 07:37:02;;;;;;;10.45;7.43;;;;;;;15.62;59.94;98283.31;4997887;28;20046;-76
2023/06/02 07:39:28;;;;;;;11.73;7.43;;;;;;;15.18;59.88;98296.63;4988992;28;20021;-76
2023/06/02 07:41:54;;;;;;;12.73;7.32;;;;;;;15.48;61.11;98284.97;5011035;28;20041;-75
2023/06/02 07:44:19;;;;;;;11.88;6.88;;;;;;;15.29;59.48;98283.88;5020460;28;20056;-76
2023/06/02 07:46:45;;;;;;;11.63;7.10;;;;;;;15.87;58.73;98283.25;5020402;28;20487;-76
2023/06/02 07:49:11;;;;;;;10.48;6.35;;;;;;;15.50;58.98;98282.78;5023805;28;20037;-76
2023/06/02 07:51:38;;;;;;;11.65;6.07;;;;;;;16.17;59.24;98291.31;5027391;28;20083;-76
2023/06/02 07:54:03;;;;;;;14.18;6.80;;;;;;;15.76;58.87;98296.06;4996966;28;20423;-76
2023/06/02 07:56:29;;;;;;;12.00;6.20;;;;;;;15.90;58.56;98286.25;5011025;28;20076;-76
2023/06/02 07:58:55;;;;;;;9.93;5.72;;;;;;;16.08;57.26;98284.81;5018480;28;20021;-76
2023/06/02 08:01:20;;;;;;;11.02;6.38;;;;;;;15.95;57.11;98284.59;4997854;28;20077;-75
2023/06/02 08:03:45;;;;;;;12.55;7.30;;;;;;;15.64;58.12;98297.44;5006958;28;20489;-75
2023/06/02 08:06:11;;;;;;;12.95;6.88;;;;;;;16.19;56.84;98291.84;5028740;28;20096;-76
2023/06/02 08:08:36;;;;;;;10.00;5.93;;;;;;;16.47;57.23;98287.66;5014378;28;20033;-75
2023/06/02 08:11:01;;;;;;;10.32;5.78;;;;;;;15.88;58.34;98295.75;5014638;28;20380;-76
2023/06/02 08:13:27;;;;;;;10.00;5.63;;;;;;;16.47;55.22;98291.19;5005133;28;20032;-76
2023/06/02 08:15:53;;;;;;;11.23;5.20;;;;;;;16.81;55.86;98290.47;4989881;28;20243;-76
2023/06/02 08:18:19;;;;;;;9.23;5.35;;;;;;;16.43;56.56;98290.09;5024945;28;20537;-76
2023/06/02 08:20:45;;;;;;;11.95;5.10;;;;;;;17.09;55.03;98287.00;5013634;28;20049;-76
2023/06/02 08:23:10;;;;;;;6.63;4.93;;;;;;;16.91;55.22;98291.22;5002003;28;20033;-76
2023/06/02 08:25:38;;;;;;;11.35;5.60;;;;;;;16.39;55.89;98294.47;5018397;28;20091;-76
2023/06/02 08:28:06;;;;;;;10.00;5.90;;;;;;;16.75;55.22;98297.03;5036951;28;20033;-74
2023/06/02 08:30:35;;;;;;;10.00;5.93;;;;;;;16.80;55.64;98291.56;5015496;28;20034;-76
2023/06/02 08:33:05;;;;;;;11.95;5.80;;;;;;;17.09;55.07;98295.16;4996659;28;20045;-76
2023/06/02 08:35:32;;;;;;;9.30;5.28;;;;;;;17.49;54.27;98285.84;5002212;28;20069;-75
2023/06/02 08:37:58;;;;;;;12.98;5.30;;;;;;;17.61;53.36;98289.84;4997318;28;20028;-78
2023/06/02 08:40:36;;;;;;;10.75;5.40;;;;;;;17.37;54.09;98288.13;5026643;28;20041;-76
2023/06/02 08:43:09;;;;;;;11.18;5.20;;;;;;;17.65;51.89;98285.44;5022269;28;20045;-75
2023/06/02 08:45:46;;;;;;;7.60;5.13;;;;;;;17.14;53.85;98293.22;5005496;28;20087;-76
2023/06/02 08:48:18;;;;;;;11.10;5.75;;;;;;;16.74;53.49;98288.06;5016947;28;20471;-76
2023/06/02 08:50:46;;;;;;;10.23;5.00;;;;;;;17.38;52.43;98274.25;5024450;28;20511;-76
2023/06/02 08:53:14;;;;;;;11.45;4.70;;;;;;;16.58;54.34;98294.69;5045391;28;20475;-76
2023/06/02 08:55:41;;;;;;;11.10;5.40;;;;;;;17.13;54.10;98288.03;5000489;28;20048;-76
2023/06/02 08:58:10;;;;;;;12.50;5.22;;;;;;;17.36;52.13;98287.34;5014928;28;20037;-76
2023/06/02 09:00:36;;;;;;;10.85;5.38;;;;;;;17.20;52.54;98283.09;5017041;28;20033;-75
2023/06/02 09:03:02;;;;;;;10.27;4.95;;;;;;;17.92;51.15;98280.22;5016462;28;20033;-75
2023/06/02 09:05:27;;;;;;;13.38;4.95;;;;;;;16.99;51.89;98281.66;5014540;28;20041;-75
2023/06/02 09:08:07;;;;;;;10.02;4.53;;;;;;;17.77;51.29;98283.13;5017250;28;20057;-75
2023/06/02 09:10:36;;;;;;;8.55;4.60;;;;;;;17.94;50.27;98288.13;5032700;28;20048;-75
2023/06/02 09:13:02;;;;;;;11.60;5.07;;;;;;;17.38;51.22;98273.41;5018958;28;20406;-75
2023/06/02 09:15:27;;;;;;;11.93;5.20;;;;;;;17.60;51.63;98280.03;5021955;28;20040;-75
2023/06/02 09:18:09;;;;;;;7.78;4.45;;;;;;;18.14;49.67;98276.19;5030211;28;20040;-75
2023/06/02 09:20:37;;;;;;;9.80;4.35;;;;;;;18.14;49.34;98273.44;5023361;28;20094;-75
2023/06/02 09:23:03;;;;;;;7.93;4.65;;;;;;;18.07;49.92;98273.00;5046352;28;20100;-75
2023/06/02 09:25:30;;;;;;;9.88;4.40;;;;;;;18.18;49.27;98277.25;5009052;28;20124;-75
2023/06/02 09:27:59;;;;;;;9.68;5.00;;;;;;;18.48;49.51;98272.22;5012694;28;20079;-75
2023/06/02 09:30:26;;;;;;;9.98;5.20;;;;;;;18.46;49.51;98276.38;5005101;28;20056;-75
2023/06/02 09:32:53;;;;;;;12.07;5.88;;;;;;;17.80;50.28;98271.69;5032731;28;20484;-75
2023/06/02 09:35:40;;;;;;;10.30;4.88;;;;;;;18.11;50.06;98271.31;5003628;28;20068;-76
2023/06/02 09:38:10;;;;;;;11.50;4.63;;;;;;;18.35;49.84;98277.53;5000464;28;20052;-75
2023/06/02 09:40:40;;;;;;;9.57;4.82;;;;;;;18.99;49.19;98272.31;4976774;28;20475;-75
2023/06/02 09:43:07;;;;;;;11.20;5.25;;;;;;;18.41;48.71;98266.28;5012422;28;20454;-75
2023/06/02 09:45:33;;;;;;;7.88;4.30;;;;;;;19.10;47.48;98267.50;5043530;28;20126;-75
2023/06/02 09:47:59;;;;;;;9.50;4.75;;;;;;;18.78;47.45;98273.72;5009540;28;20025;-75
2023/06/02 09:50:32;;;;;;;8.63;4.30;;;;;;;18.69;47.39;98271.94;5033740;28;20045;-75
2023/06/02 09:53:07;;;;;;;9.68;4.65;;;;;;;18.28;48.62;98272.47;5018431;28;20046;-75
2023/06/02 09:55:35;;;;;;;11.45;4.97;;;;;;;18.19;49.36;98268.75;4990945;28;20049;-75
2023/06/02 09:58:01;;;;;;;14.32;4.85;;;;;;;18.36;49.25;98262.81;5000928;28;20487;-75
2023/06/02 10:00:26;;;;;;;9.05;5.55;;;;;;;18.55;48.12;98266.41;5004788;28;20051;-75
2023/06/02 10:02:52;;;;;;;8.23;5.05;;;;;;;18.80;48.11;98274.22;5016937;28;20026;-75
2023/06/02 10:05:19;;;;;;;11.35;4.78;;;;;;;18.49;47.70;98259.41;5035881;28;20121;-75
2023/06/02 10:07:53;;;;;;;8.77;4.32;;;;;;;18.96;48.25;98264.72;5012406;28;20155;-75
2023/06/02 10:10:35;;;;;;;10.20;4.25;;;;;;;19.02;47.21;98266.22;5011318;28;20069;-75
2023/06/02 10:13:15;;;;;;;10.50;4.57;;;;;;;18.79;47.13;98261.69;5026074;28;20124;-75
2023/06/02 10:15:59;;;;;;;9.43;4.72;;;;;;;18.65;47.56;98271.72;5011547;28;20041;-75
2023/06/02 10:19:02;;;;;;;11.73;5.10;;;;;;;18.66;47.69;98278.81;5007636;28;20037;-75
2023/06/02 10:21:31;;;;;;;10.20;5.18;;;;;;;19.29;48.90;98271.00;5027082;28;20450;-75
2023/06/02 10:24:05;;;;;;;9.93;4.88;;;;;;;19.09;46.66;98271.34;5026923;28;20033;-75
2023/06/02 10:26:43;;;;;;;9.30;5.35;;;;;;;18.45;47.37;98266.50;5008997;28;20041;-75
2023/06/02 10:29:09;;;;;;;8.55;5.10;;;;;;;19.22;45.80;98267.84;5021447;28;20042;-75
2023/06/02 10:31:34;;;;;;;8.73;4.55;;;;;;;19.43;44.74;98271.06;4993975;28;20034;-76
2023/06/02 10:34:00;;;;;;;11.88;4.97;;;;;;;19.25;44.74;98265.31;5014551;28;20033;-75
2023/06/02 10:36:27;;;;;;;10.18;4.38;;;;;;;19.19;47.14;98269.25;5023727;28;20029;-75
2023/06/02 10:38:53;;;;;;;6.78;4.15;;;;;;;19.40;45.29;98271.66;5006168;28;20041;-75
2023/06/02 10:41:21;;;;;;;7.88;4.40;;;;;;;19.72;45.53;98266.19;5015226;28;20029;-75
2023/06/02 10:44:18;;;;;;;9.15;4.90;;;;;;;19.66;45.21;98265.44;5005219;28;20041;-75
2023/06/02 10:46:44;;;;;;;;;;;;;;;19.28;44.48;98275.66;5023248;28;20411;-75
2023/06/02 10:49:47;;;;;;;9.57;4.67;;;;;;;19.69;45.28;98264.03;5004845;28;19909;-76
2023/06/02 10:52:13;;;;;;;9.93;5.10;;;;;;;19.72;44.40;98269.69;5026566;28;20041;-75
2023/06/02 10:54:38;;;;;;;12.10;4.75;;;;;;;19.91;43.71;98272.34;5026624;28;20033;-75
2023/06/02 10:57:04;;;;;;;10.68;5.20;;;;;;;19.90;44.43;98265.28;5003282;28;20037;-75
2023/06/02 10:59:31;;;;;;;11.55;4.72;;;;;;;19.08;45.46;98266.97;5028969;28;20479;-75
2023/06/02 11:01:56;;;;;;;8.18;4.75;;;;;;;19.73;44.45;98270.53;5003201;28;20479;-75
2023/06/02 11:04:34;;;;;;;13.10;5.22;;;;;;;19.26;45.61;98266.94;5000221;28;20030;-75
2023/06/02 11:07:18;;;;;;;11.90;5.45;;;;;;;20.00;43.35;98265.06;5019937;28;20112;-75
2023/06/02 11:09:45;;;;;;;7.55;5.05;;;;;;;19.91;42.92;98272.34;5034088;28;20045;-75
2023/06/02 11:12:11;;;;;;;8.88;4.82;;;;;;;19.73;42.78;98267.78;5022902;28;20160;-74
2023/06/02 11:14:58;;;;;;;8.23;5.10;;;;;;;19.66;43.30;98270.09;5026879;28;20041;-76
2023/06/02 11:17:29;;;;;;;8.63;5.10;;;;;;;20.39;42.69;98264.59;5024120;28;20060;-76
2023/06/02 11:19:54;;;;;;;10.52;5.00;;;;;;;19.29;43.36;98255.44;4998017;28;20049;-76
2023/06/02 11:22:19;;;;;;;10.10;4.95;;;;;;;20.41;42.54;98263.16;4998219;28;20049;-75
2023/06/02 11:24:46;;;;;;;7.95;4.80;;;;;;;20.27;43.47;98259.63;4979905;28;20499;-75